Time;durP1;ratioP1;P1;durP2;ratioP2;P2;SDS_P1;SDS_P2;PMS_P1;PMS_P2;Temp;Humidity;BMP_temperature;BMP_pressure;BME280_temperature;BME280_humidity;BME280_pressure;Samples;Min_cycle;Max_cycle;Signal;HPM_P1;HPM_P2
2022/12/29 10:45:49;;;;;;;;;;;;;;;;;;1051004;27;20906;-78
2022/12/29 10:46:25;;;;;;;36.63;16.98;;;;;;;;;;1051054;28;19916;-78
2022/12/29 10:46:58;;;;;;;29.83;15.95;;;;;;;;;;1050460;28;20063;-78
2022/12/29 10:47:32;;;;;;;28.70;14.45;;;;;;;;;;1051121;28;20024;-76
2022/12/29 10:48:06;;;;;;;31.02;14.65;;;;;;;;;;1048951;28;20416;-76
2022/12/29 10:48:36;;;;;;;35.58;15.55;;;;;;;;;;1046447;28;20017;-76
2022/12/29 10:49:14;;;;;;;23.67;12.43;;;;;;;;;;1046645;28;20116;-77
2022/12/29 10:49:47;;;;;;;31.50;15.23;;;;;;;;;;1044009;28;20028;-76
2022/12/29 10:50:17;;;;;;;42.22;19.90;;;;;;;;;;1041836;28;20111;-76
2022/12/29 10:50:50;;;;;;;29.17;14.30;;;;;;;;;;1043416;28;20021;-76
2022/12/29 10:51:20;;;;;;;30.88;15.25;;;;;;;;;;1042788;28;20025;-76
2022/12/29 10:51:51;;;;;;;33.05;12.93;;;;;;;;;;1041469;28;20021;-76
2022/12/29 10:52:23;;;;;;;36.92;17.00;;;;;;;;;;1043169;28;20035;-76
2022/12/29 10:52:54;;;;;;;44.20;14.15;;;;;;;;;;1043507;28;20025;-76
2022/12/29 10:53:27;;;;;;;32.13;15.07;;;;;;;;;;1045780;28;20021;-76
2022/12/29 10:54:01;;;;;;;29.73;16.33;;;;;;;;;;1046928;28;20064;-76
2022/12/29 10:54:43;;;;;;;24.45;13.52;;;;;;;;;;1043281;28;20029;-76
2022/12/29 10:55:27;;;;;;;34.03;15.05;;;;;;;;;;1045018;28;20032;-76
2022/12/29 10:56:00;;;;;;;32.58;15.68;;;;;;;;;;1047364;28;20439;-77
2022/12/29 10:56:30;;;;;;;27.20;12.48;;;;;;;;;;1047519;28;20016;-77
2022/12/29 10:57:03;;;;;;;27.13;14.50;;;;;;;;;;1047240;28;20025;-77
2022/12/29 10:57:36;;;;;;;22.33;11.50;;;;;;;;;;1045661;28;20022;-77
2022/12/29 10:58:10;;;;;;;27.08;11.45;;;;;;;;;;1043104;28;20075;-77
2022/12/29 10:58:41;;;;;;;28.77;12.35;;;;;;;;;;1043992;28;20025;-77
2022/12/29 10:59:22;;;;;;;27.05;16.33;;;;;;;;;;1039911;28;20437;-77
2022/12/29 10:59:53;;;;;;;38.58;16.05;;;;;;;;;;1041042;28;20029;-77
2022/12/29 11:00:24;;;;;;;22.23;11.55;;;;;;;;;;1042852;28;20039;-77
2022/12/29 11:00:54;;;;;;;24.92;14.68;;;;;;;;;;1042849;28;20064;-77
2022/12/29 11:01:27;;;;;;;37.30;16.42;;;;;;;;;;1039254;28;20088;-77
2022/12/29 11:01:58;;;;;;;34.95;13.82;;;;;;;;;;1043024;28;20115;-77
2022/12/29 11:02:47;;;;;;;41.30;13.18;;;;;;;;;;1043568;28;20025;-77
2022/12/29 11:03:33;;;;;;;29.58;14.80;;;;;;;;;;1046411;28;20193;-77
2022/12/29 11:04:03;;;;;;;31.42;16.63;;;;;;;;;;1046935;28;20017;-77
2022/12/29 11:04:58;;;;;;;31.85;14.43;;;;;;;;;;1047386;28;20515;-77
2022/12/29 11:05:29;;;;;;;33.70;14.10;;;;;;;;;;1047162;28;20075;-77
2022/12/29 11:06:00;;;;;;;22.30;12.07;;;;;;;;;;1046772;28;20170;-77
2022/12/29 11:06:31;;;;;;;36.83;17.23;;;;;;;;;;1047442;28;20024;-77
2022/12/29 11:07:03;;;;;;;35.28;15.75;;;;;;;;;;1047044;28;20420;-76
2022/12/29 11:07:33;;;;;;;32.08;14.15;;;;;;;;;;1043491;28;20111;-77
2022/12/29 11:08:09;;;;;;;24.67;14.52;;;;;;;;;;1047201;28;20468;-77
2022/12/29 11:08:45;;;;;;;30.65;14.57;;;;;;;;;;1047320;28;20059;-77
2022/12/29 11:09:20;;;;;;;30.20;13.05;;;;;;;;;;1047198;28;20488;-77
2022/12/29 11:09:50;;;;;;;38.17;17.63;;;;;;;;;;1045831;28;20222;-77
2022/12/29 11:10:30;;;;;;;26.17;15.70;;;;;;;;;;1042725;28;20114;-77
2022/12/29 11:11:02;;;;;;;28.42;16.13;;;;;;;;;;1042576;28;20021;-77
2022/12/29 11:11:34;;;;;;;31.33;14.52;;;;;;;;;;1040587;28;20030;-77
2022/12/29 11:12:24;;;;;;;30.98;15.82;;;;;;;;;;1044670;28;20366;-78
2022/12/29 11:13:02;;;;;;;30.52;14.98;;;;;;;;;;1046971;28;20537;-77
2022/12/29 11:13:34;;;;;;;29.35;14.18;;;;;;;;;;1047403;28;20063;-77
2022/12/29 11:14:18;;;;;;;26.60;14.80;;;;;;;;;;1047466;28;20062;-77
2022/12/29 11:15:00;;;;;;;39.03;16.75;;;;;;;;;;1047213;28;20032;-76
2022/12/29 11:15:41;;;;;;;31.33;16.70;;;;;;;;;;1046198;28;20028;-77
2022/12/29 11:16:12;;;;;;;34.20;16.45;;;;;;;;;;1046989;28;20517;-76
2022/12/29 11:16:44;;;;;;;27.70;16.08;;;;;;;;;;1047361;28;20047;-77
2022/12/29 11:17:16;;;;;;;37.08;17.27;;;;;;;;;;1046765;28;20021;-77
2022/12/29 11:17:48;;;;;;;26.30;15.35;;;;;;;;;;1042188;28;20025;-77
2022/12/29 11:18:19;;;;;;;33.72;16.13;;;;;;;;;;1037594;28;20117;-77
2022/12/29 11:18:51;;;;;;;44.00;18.65;;;;;;;;;;1038798;28;20037;-77
2022/12/29 11:19:32;;;;;;;35.08;16.33;;;;;;;;;;1043414;28;20021;-77
2022/12/29 11:20:26;;;;;;;39.28;18.88;;;;;;;;;;1046716;28;20016;-77
2022/12/29 11:21:01;;;;;;;34.17;14.60;;;;;;;;;;1039104;28;20018;-78
2022/12/29 11:21:40;;;;;;;32.60;14.93;;;;;;;;;;1042405;28;20068;-77
2022/12/29 11:22:21;;;;;;;37.13;16.10;;;;;;;;;;1043284;28;20100;-77
2022/12/29 11:22:52;;;;;;;34.40;18.17;;;;;;;;;;1045985;28;20024;-77
2022/12/29 11:23:29;;;;;;;28.65;16.75;;;;;;;;;;1047557;28;20052;-77
2022/12/29 11:24:20;;;;;;;35.05;17.52;;;;;;;;;;1046730;28;20050;-77
2022/12/29 11:24:52;;;;;;;30.17;16.70;;;;;;;;;;1041823;28;20029;-78
2022/12/29 11:25:23;;;;;;;41.20;15.93;;;;;;;;;;1046559;28;20017;-77
2022/12/29 11:26:07;;;;;;;41.25;17.98;;;;;;;;;;1047215;28;20095;-77
2022/12/29 11:26:39;;;;;;;27.25;13.73;;;;;;;;;;1046998;28;20071;-77
2022/12/29 11:27:17;;;;;;;35.97;15.00;;;;;;;;;;1047325;28;20509;-77
2022/12/29 11:27:58;;;;;;;43.72;18.65;;;;;;;;;;1046312;28;20020;-76
2022/12/29 11:28:31;;;;;;;37.60;16.95;;;;;;;;;;1046348;28;20025;-76
2022/12/29 11:29:08;;;;;;;45.35;17.20;;;;;;;;;;1047311;28;20028;-77
2022/12/29 11:29:40;;;;;;;37.75;15.70;;;;;;;;;;1047416;28;20029;-77
2022/12/29 11:30:31;;;;;;;51.88;17.80;;;;;;;;;;1047467;28;20023;-76
2022/12/29 11:31:02;;;;;;;38.42;17.42;;;;;;;;;;1046544;28;20503;-77
2022/12/29 11:31:51;;;;;;;34.05;14.85;;;;;;;;;;1047647;28;20016;-76
2022/12/29 11:32:25;;;;;;;35.97;16.63;;;;;;;;;;1045056;28;20036;-76
2022/12/29 11:32:56;;;;;;;37.97;18.65;;;;;;;;;;1046886;28;20024;-77
2022/12/29 11:33:28;;;;;;;42.30;18.52;;;;;;;;;;1041739;28;20013;-76
2022/12/29 11:34:05;;;;;;;39.97;18.23;;;;;;;;;;1042920;28;20075;-76
2022/12/29 11:34:36;;;;;;;39.53;20.10;;;;;;;;;;1044286;28;20020;-77
2022/12/29 11:35:26;;;;;;;35.75;18.75;;;;;;;;;;1045336;28;20017;-76
2022/12/29 11:36:17;;;;;;;37.55;16.90;;;;;;;;;;1047223;28;20039;-75
2022/12/29 11:36:49;;;;;;;36.50;16.98;;;;;;;;;;1046819;28;20052;-76
2022/12/29 11:37:30;;;;;;;38.40;17.63;;;;;;;;;;1046912;28;20029;-76
2022/12/29 11:38:01;;;;;;;36.63;17.52;;;;;;;;;;1045577;28;20025;-77
2022/12/29 11:38:37;;;;;;;40.97;17.50;;;;;;;;;;1042784;28;20500;-76
2022/12/29 11:39:23;;;;;;;38.78;18.05;;;;;;;;;;1043721;28;20029;-76
2022/12/29 11:39:59;;;;;;;35.25;17.98;;;;;;;;;;1046382;28;20017;-76
2022/12/29 11:40:30;;;;;;;43.30;19.38;;;;;;;;;;1047058;28;20078;-77
2022/12/29 11:41:02;;;;;;;38.72;18.52;;;;;;;;;;1047456;28;20020;-77
2022/12/29 11:41:32;;;;;;;47.80;18.98;;;;;;;;;;1047416;28;20024;-77
2022/12/29 11:42:03;;;;;;;31.73;17.85;;;;;;;;;;1046765;28;20052;-77
2022/12/29 11:42:34;;;;;;;42.38;17.70;;;;;;;;;;1044112;28;20036;-77
2022/12/29 11:43:05;;;;;;;59.00;23.30;;;;;;;;;;1045255;28;20056;-77
2022/12/29 11:45:05;;;;;;;;;;;;;;;;;;1035485;28;20424;-76
2022/12/29 11:45:36;;;;;;;46.20;20.52;;;;;;;;;;1034901;28;19921;-76
2022/12/29 11:46:13;;;;;;;40.85;18.55;;;;;;;;;;1032858;28;20034;-78
2022/12/29 11:46:46;;;;;;;51.97;21.42;;;;;;;;;;1032359;28;20592;-76
2022/12/29 11:47:22;;;;;;;46.63;20.35;;;;;;;;;;1034662;28;20442;-76
2022/12/29 11:47:57;;;;;;;48.55;20.85;;;;;;;;;;1034589;28;20026;-76
2022/12/29 11:48:29;;;;;;;36.13;15.85;;;;;;;;;;1034191;28;20454;-78
2022/12/29 11:49:01;;;;;;;38.00;17.58;;;;;;;;;;1034834;28;20120;-77
2022/12/29 11:49:31;;;;;;;26.08;15.13;;;;;;;;;;1035065;28;20476;-77
2022/12/29 11:50:04;;;;;;;30.17;15.70;;;;;;;;;;1034104;28;20033;-76
2022/12/29 11:50:37;;;;;;;31.13;15.23;;;;;;;;;;1034811;28;20084;-76
2022/12/29 11:51:08;;;;;;;67.00;17.55;;;;;;;;;;1033930;28;20057;-76
2022/12/29 11:51:48;;;;;;;31.05;16.10;;;;;;;;;;1034647;28;20026;-76
2022/12/29 11:52:23;;;;;;;42.10;17.08;;;;;;;;;;1034774;28;20041;-78
2022/12/29 11:53:12;;;;;;;47.90;18.05;;;;;;;;;;1034730;28;20100;-78
2022/12/29 11:53:47;;;;;;;41.67;16.83;;;;;;;;;;1034670;28;20026;-76
2022/12/29 11:54:32;;;;;;;40.90;18.02;;;;;;;;;;1033597;28;20560;-76
2022/12/29 11:55:04;;;;;;;28.83;15.68;;;;;;;;;;1034273;28;20022;-76
2022/12/29 11:55:35;;;;;;;37.40;15.23;;;;;;;;;;1034710;28;20026;-76
2022/12/29 11:56:08;;;;;;;45.35;17.13;;;;;;;;;;1034905;28;20022;-76
2022/12/29 11:56:41;;;;;;;27.02;15.25;;;;;;;;;;1033688;28;20029;-76
2022/12/29 11:57:17;;;;;;;39.30;16.98;;;;;;;;;;1034624;28;20386;-76
2022/12/29 11:57:49;;;;;;;37.08;16.05;;;;;;;;;;1034452;28;20118;-77
2022/12/29 11:58:19;;;;;;;46.58;19.67;;;;;;;;;;1033768;28;20160;-77
2022/12/29 11:58:50;;;;;;;40.70;15.15;;;;;;;;;;1030457;28;20097;-76
2022/12/29 11:59:26;;;;;;;43.05;17.23;;;;;;;;;;1030680;28;20015;-76
2022/12/29 11:59:59;;;;;;;30.23;13.73;;;;;;;;;;1031394;28;20525;-77
2022/12/29 12:00:32;;;;;;;35.53;17.30;;;;;;;;;;1034921;28;20033;-77
2022/12/29 12:01:04;;;;;;;47.58;15.63;;;;;;;;;;1035863;28;20072;-78
2022/12/29 12:01:37;;;;;;;41.20;17.58;;;;;;;;;;1035381;28;20036;-79
2022/12/29 12:02:13;;;;;;;31.40;16.25;;;;;;;;;;1035018;28;20548;-78
2022/12/29 12:03:04;;;;;;;38.30;14.77;;;;;;;;;;1034163;28;20029;-77
2022/12/29 12:03:36;;;;;;;62.35;18.15;;;;;;;;;;1033667;28;20033;-77
2022/12/29 12:04:10;;;;;;;31.10;14.27;;;;;;;;;;1034831;28;20437;-77
2022/12/29 12:04:41;;;;;;;38.08;15.38;;;;;;;;;;1032196;28;20529;-77
2022/12/29 12:05:19;;;;;;;50.95;16.92;;;;;;;;;;1034223;28;20030;-77
2022/12/29 12:05:57;;;;;;;30.40;15.80;;;;;;;;;;1030512;28;20030;-77
2022/12/29 12:06:29;;;;;;;37.22;16.92;;;;;;;;;;1030691;28;20022;-77
2022/12/29 12:07:02;;;;;;;32.85;17.20;;;;;;;;;;1032392;28;20026;-77
2022/12/29 12:07:41;;;;;;;45.03;18.63;;;;;;;;;;1032384;28;20104;-76
2022/12/29 12:08:16;;;;;;;39.30;19.23;;;;;;;;;;1033809;28;20026;-77
2022/12/29 12:09:16;;;;;;;58.97;17.88;;;;;;;;;;1034211;28;20040;-76
2022/12/29 12:09:57;;;;;;;36.10;17.15;;;;;;;;;;1024749;28;20496;-77
2022/12/29 12:10:42;;;;;;;48.70;17.70;;;;;;;;;;1034090;28;20080;-77
2022/12/29 12:11:18;;;;;;;42.80;19.58;;;;;;;;;;1034557;28;20085;-76
2022/12/29 12:11:53;;;;;;;46.17;18.38;;;;;;;;;;1034585;28;20022;-77
2022/12/29 12:12:35;;;;;;;43.35;19.00;;;;;;;;;;1033778;28;20018;-76
2022/12/29 12:13:14;;;;;;;35.03;17.52;;;;;;;;;;1034425;28;20022;-76
2022/12/29 12:13:47;;;;;;;45.35;18.20;;;;;;;;;;1033862;28;20057;-76
2022/12/29 12:14:27;;;;;;;45.45;20.02;;;;;;;;;;1033801;28;20025;-76
2022/12/29 12:14:59;;;;;;;35.00;16.33;;;;;;;;;;1034906;28;20026;-77
2022/12/29 12:15:36;;;;;;;30.85;17.08;;;;;;;;;;1033650;28;20832;-78
2022/12/29 12:16:21;;;;;;;37.88;16.33;;;;;;;;;;1034500;28;20029;-78
2022/12/29 12:17:17;;;;;;;28.25;16.58;;;;;;;;;;1034106;28;20026;-78
2022/12/29 12:17:53;;;;;;;42.17;21.35;;;;;;;;;;1028811;28;20510;-78
2022/12/29 12:18:24;;;;;;;50.78;19.70;;;;;;;;;;1034805;28;20022;-78
2022/12/29 12:19:01;;;;;;;60.42;22.05;;;;;;;;;;1030882;28;20030;-78
2022/12/29 12:19:34;;;;;;;44.83;21.95;;;;;;;;;;1032171;28;20030;-78
2022/12/29 12:20:05;;;;;;;47.70;20.70;;;;;;;;;;1034580;28;20014;-76
2022/12/29 12:20:38;;;;;;;48.38;22.98;;;;;;;;;;1034654;28;20010;-78
2022/12/29 12:21:27;;;;;;;43.33;20.45;;;;;;;;;;1035550;28;20433;-78
2022/12/29 12:22:08;;;;;;;37.20;16.00;;;;;;;;;;1034617;28;20533;-76
2022/12/29 12:22:40;;;;;;;27.30;12.10;;;;;;;;;;1034234;28;20092;-76
2022/12/29 12:23:13;;;;;;;41.10;18.30;;;;;;;;;;1032924;28;20022;-78
2022/12/29 12:23:53;;;;;;;45.08;21.20;;;;;;;;;;1032859;28;20022;-77
2022/12/29 12:24:47;;;;;;;34.88;16.42;;;;;;;;;;1034206;28;20034;-76
2022/12/29 12:25:22;;;;;;;34.88;16.00;;;;;;;;;;1033141;28;20089;-76
2022/12/29 12:26:03;;;;;;;44.75;18.83;;;;;;;;;;1033979;28;20026;-76
2022/12/29 12:26:49;;;;;;;38.10;18.00;;;;;;;;;;1034019;28;20030;-76
2022/12/29 12:27:22;;;;;;;51.38;21.55;;;;;;;;;;1034484;28;20120;-76
2022/12/29 12:27:57;;;;;;;52.45;23.98;;;;;;;;;;1033726;28;20042;-76
2022/12/29 12:28:37;;;;;;;55.63;21.13;;;;;;;;;;1033603;28;20425;-76
2022/12/29 12:29:14;;;;;;;58.97;22.25;;;;;;;;;;1034429;28;20014;-76
2022/12/29 12:29:51;;;;;;;45.95;23.25;;;;;;;;;;1034139;28;20483;-76
2022/12/29 12:30:22;;;;;;;51.65;22.08;;;;;;;;;;1034577;28;20030;-78
2022/12/29 12:30:55;;;;;;;48.92;24.23;;;;;;;;;;1034857;28;20030;-78
2022/12/29 12:31:54;;;;;;;48.35;22.20;;;;;;;;;;1034608;28;20010;-78
2022/12/29 12:32:30;;;;;;;44.20;23.02;;;;;;;;;;1019144;29;20489;-77
2022/12/29 12:33:03;;;;;;;48.10;21.08;;;;;;;;;;1034321;28;20124;-77
2022/12/29 12:33:37;;;;;;;64.15;23.85;;;;;;;;;;1034881;28;20026;-77
2022/12/29 12:34:13;;;;;;;42.30;21.45;;;;;;;;;;1034808;28;20018;-77
2022/12/29 12:34:45;;;;;;;65.13;23.70;;;;;;;;;;1034800;28;20482;-77
2022/12/29 12:35:21;;;;;;;55.92;24.02;;;;;;;;;;1034033;28;20030;-77
2022/12/29 12:35:54;;;;;;;50.63;20.13;;;;;;;;;;1036447;28;20026;-76
2022/12/29 12:36:31;;;;;;;47.30;21.42;;;;;;;;;;1036424;28;20088;-78
2022/12/29 12:37:20;;;;;;;47.17;22.35;;;;;;;;;;1033896;28;20076;-78
2022/12/29 12:37:53;;;;;;;42.15;20.90;;;;;;;;;;1032510;28;20032;-77
2022/12/29 12:38:37;;;;;;;38.78;19.17;;;;;;;;;;1033096;28;20037;-77
2022/12/29 12:39:23;;;;;;;46.95;22.98;;;;;;;;;;1034398;28;20117;-77
2022/12/29 12:39:56;;;;;;;42.00;20.02;;;;;;;;;;1034756;28;20125;-78
2022/12/29 12:41:02;;;;;;;42.13;18.75;;;;;;;;;;1034456;28;20018;-78
2022/12/29 12:41:35;;;;;;;41.95;16.58;;;;;;;;;;1021910;29;20019;-78
2022/12/29 12:42:12;;;;;;;41.33;21.38;;;;;;;;;;1022509;29;20479;-78
2022/12/29 12:42:43;;;;;;;42.10;20.27;;;;;;;;;;1021878;29;20054;-78
2022/12/29 12:43:32;;;;;;;48.38;20.25;;;;;;;;;;1019487;29;20012;-78
2022/12/29 12:44:11;;;;;;;38.20;18.50;;;;;;;;;;1022990;28;20126;-78
2022/12/29 12:44:42;;;;;;;42.75;20.73;;;;;;;;;;1029157;28;20129;-78
2022/12/29 12:45:31;;;;;;;43.50;17.45;;;;;;;;;;1032678;28;20080;-78
2022/12/29 12:46:22;;;;;;;53.33;21.10;;;;;;;;;;1027391;28;20503;-78
2022/12/29 12:47:01;;;;;;;45.33;19.33;;;;;;;;;;1029884;28;20513;-77
2022/12/29 12:47:32;;;;;;;47.90;21.00;;;;;;;;;;1030529;28;20902;-78
2022/12/29 12:48:08;;;;;;;49.78;22.08;;;;;;;;;;1034462;28;20034;-78
2022/12/29 12:48:38;;;;;;;49.15;22.40;;;;;;;;;;1033997;28;20438;-78
2022/12/29 12:49:34;;;;;;;48.15;23.77;;;;;;;;;;1034746;28;20026;-78
2022/12/29 12:50:07;;;;;;;62.33;21.50;;;;;;;;;;1033909;28;20014;-78
2022/12/29 12:50:38;;;;;;;50.67;21.20;;;;;;;;;;1034445;28;20457;-77
2022/12/29 12:51:26;;;;;;;49.55;23.30;;;;;;;;;;1034578;28;20014;-78
2022/12/29 12:52:08;;;;;;;52.38;21.38;;;;;;;;;;1033497;28;20026;-77
2022/12/29 12:52:50;;;;;;;48.75;23.50;;;;;;;;;;1033913;28;20030;-78
2022/12/29 12:53:35;;;;;;;51.72;24.55;;;;;;;;;;1033673;28;20014;-78
2022/12/29 12:54:11;;;;;;;50.25;24.52;;;;;;;;;;1032442;28;20565;-77
2022/12/29 12:54:42;;;;;;;55.10;26.88;;;;;;;;;;1032533;28;20546;-77
2022/12/29 12:55:31;;;;;;;60.45;27.27;;;;;;;;;;1033949;28;20030;-78
2022/12/29 12:56:10;;;;;;;56.05;26.77;;;;;;;;;;1034613;28;20113;-77
2022/12/29 12:56:41;;;;;;;51.08;23.40;;;;;;;;;;1030542;28;20022;-78
2022/12/29 12:57:38;;;;;;;57.72;27.70;;;;;;;;;;1031691;28;20085;-78
2022/12/29 12:59:14;;;;;;;;;;;;;;;;;;1047572;28;20413;-75
2022/12/29 12:59:51;;;;;;;58.38;25.58;;;;;;;;;;1047458;28;20287;-76
2022/12/29 13:00:23;;;;;;;55.30;24.65;;;;;;;;;;1047057;28;20028;-75
2022/12/29 13:01:32;;;;;;;59.70;27.30;;;;;;;;;;1047366;28;20058;-75
2022/12/29 13:02:08;;;;;;;59.67;28.70;;;;;;;;;;1046840;28;20035;-76
2022/12/29 13:02:56;;;;;;;65.57;27.63;;;;;;;;;;1046447;28;20067;-76
2022/12/29 13:03:26;;;;;;;55.60;28.45;;;;;;;;;;1045833;28;20055;-75
2022/12/29 13:04:15;;;;;;;67.22;28.88;;;;;;;;;;1046775;28;20111;-75
2022/12/29 13:05:04;;;;;;;59.63;27.90;;;;;;;;;;1046204;28;20060;-76
2022/12/29 13:05:38;;;;;;;60.78;26.25;;;;;;;;;;1046293;28;20231;-76
2022/12/29 13:06:15;;;;;;;60.00;27.42;;;;;;;;;;1046816;28;20410;-76
2022/12/29 13:07:04;;;;;;;51.15;25.92;;;;;;;;;;1046909;28;20025;-76
2022/12/29 13:07:43;;;;;;;56.97;25.13;;;;;;;;;;1046905;28;20021;-76
2022/12/29 13:08:17;;;;;;;59.10;25.25;;;;;;;;;;1047324;28;20508;-76
2022/12/29 13:08:56;;;;;;;55.97;26.63;;;;;;;;;;1046958;28;20067;-76
2022/12/29 13:09:27;;;;;;;63.97;29.77;;;;;;;;;;1047218;28;20029;-76
2022/12/29 13:10:16;;;;;;;63.30;27.50;;;;;;;;;;1046843;28;20578;-75
2022/12/29 13:11:02;;;;;;;62.10;25.98;;;;;;;;;;1047356;28;20025;-76
2022/12/29 13:11:46;;;;;;;59.65;24.92;;;;;;;;;;1046412;28;20020;-76
2022/12/29 13:12:27;;;;;;;62.47;26.38;;;;;;;;;;1046711;28;20035;-76
2022/12/29 13:13:10;;;;;;;66.18;26.58;;;;;;;;;;1046525;28;20016;-76
2022/12/29 13:13:53;;;;;;;58.97;25.77;;;;;;;;;;1046902;28;20076;-76
2022/12/29 13:14:39;;;;;;;59.75;25.95;;;;;;;;;;1046877;28;20547;-75
2022/12/29 13:15:19;;;;;;;53.15;24.90;;;;;;;;;;1047162;28;20060;-76
2022/12/29 13:15:55;;;;;;;49.50;22.40;;;;;;;;;;1047017;28;20025;-76
2022/12/29 13:16:34;;;;;;;51.47;23.88;;;;;;;;;;1047108;28;20514;-75
2022/12/29 13:17:07;;;;;;;53.55;24.30;;;;;;;;;;1046306;28;20075;-76
2022/12/29 13:17:40;;;;;;;54.75;24.70;;;;;;;;;;1047023;28;20024;-76
2022/12/29 13:18:20;;;;;;;56.03;24.73;;;;;;;;;;1046319;28;20108;-76
2022/12/29 13:19:19;;;;;;;55.80;24.70;;;;;;;;;;1046297;28;20031;-76
2022/12/29 13:20:11;;;;;;;46.22;20.77;;;;;;;;;;1042487;28;20056;-76
2022/12/29 13:20:42;;;;;;;49.55;23.00;;;;;;;;;;1047312;28;20982;-76
2022/12/29 13:21:33;;;;;;;61.22;26.65;;;;;;;;;;1047395;28;20025;-76
2022/12/29 13:22:06;;;;;;;60.53;23.90;;;;;;;;;;1046182;28;20050;-75
2022/12/29 13:22:41;;;;;;;58.67;27.33;;;;;;;;;;1046483;28;20119;-75
2022/12/29 13:23:14;;;;;;;64.28;28.17;;;;;;;;;;1047287;28;20020;-75
2022/12/29 13:23:45;;;;;;;61.25;27.77;;;;;;;;;;1046674;28;20032;-75
2022/12/29 13:24:19;;;;;;;57.10;28.20;;;;;;;;;;1047279;28;20008;-75
2022/12/29 13:24:55;;;;;;;69.57;26.83;;;;;;;;;;1045644;28;20480;-75
2022/12/29 13:25:41;;;;;;;64.65;27.73;;;;;;;;;;1046151;28;20021;-76
2022/12/29 13:26:14;;;;;;;60.53;25.67;;;;;;;;;;1044326;28;20075;-76
2022/12/29 13:26:50;;;;;;;53.90;25.20;;;;;;;;;;1047081;28;20418;-76
2022/12/29 13:27:33;;;;;;;54.50;25.27;;;;;;;;;;1046065;28;20090;-75
2022/12/29 13:28:14;;;;;;;63.08;26.90;;;;;;;;;;1043058;28;20458;-76
2022/12/29 13:29:06;;;;;;;54.80;24.55;;;;;;;;;;1039901;28;20017;-76
2022/12/29 13:30:00;;;;;;;68.35;26.52;;;;;;;;;;1043074;28;20021;-75
2022/12/29 13:30:34;;;;;;;59.05;26.38;;;;;;;;;;1041777;28;20079;-75
2022/12/29 13:31:13;;;;;;;66.68;24.75;;;;;;;;;;1047115;28;20028;-75
2022/12/29 13:31:43;;;;;;;66.38;28.80;;;;;;;;;;1047103;28;20033;-76
2022/12/29 13:32:22;;;;;;;67.82;27.63;;;;;;;;;;1047216;28;20020;-76
2022/12/29 13:33:11;;;;;;;56.60;24.73;;;;;;;;;;1047229;28;20039;-76
2022/12/29 13:33:48;;;;;;;60.88;24.95;;;;;;;;;;1047089;28;20021;-76
2022/12/29 13:34:38;;;;;;;62.72;28.42;;;;;;;;;;1046270;28;20025;-76
2022/12/29 13:35:19;;;;;;;58.50;25.60;;;;;;;;;;1046156;28;20070;-76
2022/12/29 13:35:55;;;;;;;55.70;25.60;;;;;;;;;;1046345;28;20028;-75
2022/12/29 13:36:45;;;;;;;62.70;26.90;;;;;;;;;;1046307;28;20031;-75
2022/12/29 13:37:17;;;;;;;57.28;26.83;;;;;;;;;;1046882;28;20045;-75
2022/12/29 13:37:56;;;;;;;58.55;26.20;;;;;;;;;;1046255;28;20022;-76
2022/12/29 13:38:31;;;;;;;52.03;24.40;;;;;;;;;;1047423;28;20455;-76
2022/12/29 13:39:02;;;;;;;48.38;23.33;;;;;;;;;;1047272;28;20063;-76
2022/12/29 13:39:39;;;;;;;56.00;27.70;;;;;;;;;;1047267;28;20074;-76
2022/12/29 13:40:18;;;;;;;81.60;29.23;;;;;;;;;;1045816;28;20024;-76
2022/12/29 13:40:50;;;;;;;58.88;27.73;;;;;;;;;;1047243;28;20511;-76
2022/12/29 13:41:31;;;;;;;67.10;27.92;;;;;;;;;;1047454;28;20024;-75
2022/12/29 13:42:01;;;;;;;;;;;;;;;;;;1047328;28;20494;-75
2022/12/29 13:42:32;;;;;;;66.60;27.75;;;;;;;;;;1047086;28;19909;-76
2022/12/29 13:43:02;;;;;;;58.08;27.13;;;;;;;;;;1046854;28;20048;-76
2022/12/29 13:43:35;;;;;;;54.47;25.60;;;;;;;;;;1047184;28;20040;-76
2022/12/29 13:44:07;;;;;;;57.30;26.17;;;;;;;;;;1044949;28;20029;-75
2022/12/29 13:44:51;;;;;;;58.72;25.73;;;;;;;;;;1042694;28;20481;-76
2022/12/29 13:45:24;;;;;;;60.92;27.48;;;;;;;;;;1042960;28;20018;-76
2022/12/29 13:45:58;;;;;;;62.08;25.80;;;;;;;;;;1043228;28;20029;-76
2022/12/29 13:46:35;;;;;;;59.33;24.80;;;;;;;;;;1044171;28;20799;-76
2022/12/29 13:47:13;;;;;;;58.60;25.30;;;;;;;;;;1047006;28;20205;-76
2022/12/29 13:47:46;;;;;;;57.53;27.25;;;;;;;;;;1046915;28;20693;-76
2022/12/29 13:48:20;;;;;;;80.07;27.90;;;;;;;;;;1047224;28;20375;-75
2022/12/29 13:48:50;;;;;;;55.17;24.98;;;;;;;;;;1047167;28;20116;-75
2022/12/29 13:49:24;;;;;;;57.75;26.10;;;;;;;;;;1046889;28;20021;-75
2022/12/29 13:49:56;;;;;;;63.22;26.20;;;;;;;;;;1044902;28;20028;-75
2022/12/29 13:50:27;;;;;;;52.42;24.40;;;;;;;;;;1044030;28;20020;-75
2022/12/29 13:51:00;;;;;;;57.25;27.88;;;;;;;;;;1043773;28;20027;-75
2022/12/29 13:51:31;;;;;;;57.10;26.88;;;;;;;;;;1045816;28;20017;-75
2022/12/29 13:52:12;;;;;;;55.50;23.95;;;;;;;;;;1046686;28;20352;-75
2022/12/29 13:52:55;;;;;;;61.97;27.98;;;;;;;;;;1046460;28;20032;-76
2022/12/29 13:53:35;;;;;;;65.15;26.15;;;;;;;;;;1046623;28;20103;-76
2022/12/29 13:54:05;;;;;;;65.20;26.70;;;;;;;;;;1041993;28;20021;-75
2022/12/29 13:54:45;;;;;;;61.80;28.63;;;;;;;;;;1042763;28;20557;-75
2022/12/29 13:55:31;;;;;;;53.38;26.30;;;;;;;;;;1045317;28;20082;-76
2022/12/29 13:56:27;;;;;;;56.80;25.10;;;;;;;;;;1046977;28;20033;-76
2022/12/29 13:57:20;;;;;;;49.78;23.83;;;;;;;;;;1046573;28;20519;-75
2022/12/29 13:57:50;;;;;;;74.95;27.27;;;;;;;;;;1046462;28;20024;-76
2022/12/29 13:58:30;;;;;;;66.25;28.30;;;;;;;;;;1046914;28;20020;-76
2022/12/29 13:59:19;;;;;;;69.07;28.20;;;;;;;;;;1046761;28;20404;-76
2022/12/29 13:59:52;;;;;;;64.38;27.33;;;;;;;;;;1046714;28;20497;-76
2022/12/29 14:00:26;;;;;;;70.50;27.83;;;;;;;;;;1046881;28;20024;-76
2022/12/29 14:01:14;;;;;;;68.72;26.10;;;;;;;;;;1046282;28;20523;-76
2022/12/29 14:01:49;;;;;;;57.75;25.60;;;;;;;;;;1045688;28;20028;-76
2022/12/29 14:02:35;;;;;;;58.63;26.90;;;;;;;;;;1046162;28;20420;-76
2022/12/29 14:03:21;;;;;;;61.70;26.67;;;;;;;;;;1046801;28;20066;-75
2022/12/29 14:03:53;;;;;;;61.58;28.65;;;;;;;;;;1046226;28;20028;-75
2022/12/29 14:04:25;;;;;;;61.90;27.85;;;;;;;;;;1047282;28;20044;-75
2022/12/29 14:05:00;;;;;;;61.72;26.90;;;;;;;;;;1047023;28;20029;-76
2022/12/29 14:05:32;;;;;;;58.13;25.23;;;;;;;;;;1047317;28;20020;-76
2022/12/29 14:06:26;;;;;;;60.70;28.05;;;;;;;;;;1047118;28;20066;-75
2022/12/29 14:07:12;;;;;;;68.30;28.08;;;;;;;;;;1046779;28;20496;-76
2022/12/29 14:07:43;;;;;;;62.72;28.20;;;;;;;;;;1046991;28;20525;-76
2022/12/29 14:08:16;;;;;;;51.22;24.63;;;;;;;;;;1047056;28;20021;-76
2022/12/29 14:08:47;;;;;;;55.78;24.88;;;;;;;;;;1047215;28;20021;-76
2022/12/29 14:09:53;;;;;;;64.10;27.90;;;;;;;;;;1047190;28;20587;-76
2022/12/29 14:10:36;;;;;;;54.30;26.52;;;;;;;;;;1044941;28;20028;-76
2022/12/29 14:11:08;;;;;;;59.25;25.42;;;;;;;;;;1043983;28;20021;-76
2022/12/29 14:11:40;;;;;;;58.35;26.35;;;;;;;;;;1038817;28;20136;-76
2022/12/29 14:12:20;;;;;;;72.18;29.60;;;;;;;;;;1035533;28;20038;-76
2022/12/29 14:12:50;;;;;;;70.70;27.60;;;;;;;;;;1035148;28;20544;-76
2022/12/29 14:13:22;;;;;;;63.97;29.48;;;;;;;;;;1038239;28;20296;-76
2022/12/29 14:13:53;;;;;;;57.10;25.40;;;;;;;;;;1041432;28;20017;-76
2022/12/29 14:14:25;;;;;;;48.58;24.67;;;;;;;;;;1044097;28;20032;-76
2022/12/29 14:15:11;;;;;;;54.38;24.52;;;;;;;;;;1043974;28;20063;-76
2022/12/29 14:15:43;;;;;;;59.15;25.88;;;;;;;;;;1044446;28;20461;-76
2022/12/29 14:16:31;;;;;;;47.45;24.67;;;;;;;;;;1043194;28;20107;-76
2022/12/29 14:17:12;;;;;;;54.38;26.17;;;;;;;;;;1043862;28;20025;-76
2022/12/29 14:17:43;;;;;;;52.35;24.95;;;;;;;;;;1043777;28;20025;-75
2022/12/29 14:18:19;;;;;;;53.63;24.08;;;;;;;;;;1044439;28;20108;-75
2022/12/29 14:18:49;;;;;;;65.35;25.05;;;;;;;;;;1044280;28;20067;-75
2022/12/29 14:19:29;;;;;;;62.08;24.42;;;;;;;;;;1044284;28;20025;-76
2022/12/29 14:20:00;;;;;;;50.05;25.50;;;;;;;;;;1043478;28;20032;-75
2022/12/29 14:20:31;;;;;;;65.93;26.73;;;;;;;;;;1044313;28;20116;-75
2022/12/29 14:21:05;;;;;;;55.00;25.33;;;;;;;;;;1044326;28;20067;-76
2022/12/29 14:21:35;;;;;;;61.95;27.42;;;;;;;;;;1044380;28;20047;-76
2022/12/29 14:22:06;;;;;;;61.42;26.95;;;;;;;;;;1044382;28;20059;-76
2022/12/29 14:22:54;;;;;;;55.58;25.85;;;;;;;;;;1043372;28;20032;-76
2022/12/29 14:23:28;;;;;;;64.30;26.00;;;;;;;;;;1044423;28;20028;-76
2022/12/29 14:24:17;;;;;;;45.83;23.27;;;;;;;;;;1043877;28;20024;-76
2022/12/29 14:24:48;;;;;;;55.75;24.55;;;;;;;;;;1042248;28;20441;-76
2022/12/29 14:25:37;;;;;;;56.13;26.58;;;;;;;;;;1042845;28;20032;-76
2022/12/29 14:26:11;;;;;;;53.63;24.13;;;;;;;;;;1044080;28;20017;-76
2022/12/29 14:26:41;;;;;;;70.07;28.25;;;;;;;;;;1044380;28;20459;-75